Time;durP1;ratioP1;P1;durP2;ratioP2;P2;SDS_P1;SDS_P2;PMS_P1;PMS_P2;Temp;Humidity;BMP_temperature;BMP_pressure;BME280_temperature;BME280_humidity;BME280_pressure;Samples;Min_cycle;Max_cycle;Signal;HPM_P1;HPM_P2
2021/06/01 00:02:11;;;;;;;16.50;5.23;;;13.00;99.90;;;;;;5030580;28;20268;-71
2021/06/01 00:04:39;;;;;;;12.63;4.20;;;13.10;99.90;;;;;;5031872;28;20193;-71
2021/06/01 00:07:06;;;;;;;8.80;3.70;;;13.10;99.90;;;;;;5030664;28;20212;-69
2021/06/01 00:09:34;;;;;;;9.80;4.30;;;13.20;99.90;;;;;;5031514;28;20184;-71
2021/06/01 00:12:02;;;;;;;10.93;5.43;;;13.30;99.90;;;;;;5031516;28;20208;-69
2021/06/01 00:14:29;;;;;;;14.83;5.00;;;13.20;99.90;;;;;;5025904;28;20223;-68
2021/06/01 00:16:57;;;;;;;8.63;4.03;;;13.20;99.90;;;;;;5031195;28;20268;-69
2021/06/01 00:19:25;;;;;;;12.57;3.70;;;13.30;99.90;;;;;;5031919;28;20234;-69
2021/06/01 00:21:53;;;;;;;9.70;3.73;;;13.30;99.90;;;;;;5031266;28;20211;-69
2021/06/01 00:24:21;;;;;;;12.07;3.97;;;13.20;99.90;;;;;;5025363;28;20199;-71
2021/06/01 00:26:48;;;;;;;9.20;3.20;;;13.20;99.90;;;;;;5031570;28;20207;-71
2021/06/01 00:29:15;;;;;;;17.03;3.57;;;13.20;99.90;;;;;;5031453;28;20203;-70
2021/06/01 00:31:43;;;;;;;11.67;3.97;;;13.40;99.90;;;;;;5031636;28;20208;-70
2021/06/01 00:34:11;;;;;;;12.90;3.87;;;13.70;99.90;;;;;;5029667;28;20643;-69
2021/06/01 00:36:39;;;;;;;9.03;3.73;;;14.00;99.90;;;;;;5025887;28;20184;-73
2021/06/01 00:39:07;;;;;;;10.80;3.93;;;14.20;99.90;;;;;;5031118;28;20250;-71
2021/06/01 00:41:34;;;;;;;15.87;3.80;;;14.50;99.90;;;;;;5031259;28;20207;-72
2021/06/01 00:44:03;;;;;;;11.07;3.70;;;14.50;99.90;;;;;;5031294;28;20528;-71
2021/06/01 00:46:30;;;;;;;5.03;2.90;;;14.80;99.90;;;;;;5029377;28;20283;-72
2021/06/01 00:48:58;;;;;;;9.53;3.13;;;14.90;99.90;;;;;;5029511;28;20180;-73
2021/06/01 00:51:25;;;;;;;5.97;2.90;;;14.90;99.90;;;;;;5031498;28;20216;-73
2021/06/01 00:53:53;;;;;;;7.23;3.20;;;14.80;99.90;;;;;;5030297;28;20266;-69
2021/06/01 00:56:20;;;;;;;7.90;3.30;;;14.90;99.90;;;;;;5030015;28;20181;-68
2021/06/01 00:58:48;;;;;;;8.33;3.30;;;15.10;99.90;;;;;;5031197;28;20223;-69
2021/06/01 01:01:19;;;;;;;8.50;3.33;;;15.20;99.90;;;;;;5023113;28;20180;-73
2021/06/01 01:03:47;;;;;;;10.93;3.40;;;15.50;99.90;;;;;;5030183;28;20181;-70
2021/06/01 01:06:32;;;;;;;6.27;3.20;;;15.80;99.90;;;;;;5029068;28;20177;-70
2021/06/01 01:09:08;;;;;;;9.03;3.30;;;16.00;99.90;;;;;;5030746;28;20280;-70
2021/06/01 01:11:48;;;;;;;15.10;3.40;;;16.20;99.90;;;;;;5030341;28;20188;-70
2021/06/01 01:14:36;;;;;;;8.90;3.43;;;16.20;99.90;;;;;;5025643;28;20230;-68
2021/06/01 01:17:11;;;;;;;7.53;3.10;;;16.30;99.90;;;;;;5030887;28;20194;-70
2021/06/01 01:19:46;;;;;;;10.20;3.23;;;16.50;99.90;;;;;;5026901;28;20286;-69
2021/06/01 01:22:16;;;;;;;8.20;3.30;;;16.80;99.90;;;;;;5027919;28;20179;-69
2021/06/01 01:24:54;;;;;;;11.43;3.33;;;17.20;99.90;;;;;;5030899;28;20536;-71
2021/06/01 01:27:25;;;;;;;12.67;3.30;;;17.10;99.90;;;;;;5026091;28;20185;-68
2021/06/01 01:29:54;;;;;;;8.67;2.80;;;17.20;99.90;;;;;;5030721;28;20555;-70
2021/06/01 01:32:29;;;;;;;9.53;3.33;;;16.80;99.90;;;;;;5028296;28;20254;-68
2021/06/01 01:34:59;;;;;;;10.87;3.13;;;16.90;99.90;;;;;;5029785;28;20184;-70
2021/06/01 01:37:29;;;;;;;9.33;3.07;;;16.90;99.90;;;;;;5028098;28;20196;-70
2021/06/01 01:39:59;;;;;;;11.17;3.40;;;16.80;99.90;;;;;;5028608;28;20210;-68
2021/06/01 01:42:40;;;;;;;5.73;2.60;;;16.60;99.90;;;;;;5021718;28;20184;-69
2021/06/01 01:45:12;;;;;;;4.00;2.37;;;16.80;99.90;;;;;;5031920;28;20256;-71
2021/06/01 01:50:17;;;;;;;6.10;2.47;;;17.00;99.90;;;;;;5034944;28;20171;-72
2021/06/01 01:52:46;;;;;;;5.03;2.40;;;17.20;99.90;;;;;;5034659;28;20277;-69
2021/06/01 01:55:16;;;;;;;10.70;2.30;;;17.20;99.90;;;;;;5034154;28;20183;-70
2021/06/01 01:57:46;;;;;;;4.30;2.07;;;17.50;99.90;;;;;;5034557;28;20706;-69
2021/06/01 02:00:17;;;;;;;6.50;1.93;;;17.30;99.90;;;;;;5034947;28;20180;-69
2021/06/01 02:02:48;;;;;;;5.20;1.90;;;17.50;99.90;;;;;;5034015;28;20227;-69
2021/06/01 02:05:16;;;;;;;4.93;2.20;;;17.80;99.90;;;;;;5035088;28;20551;-70
2021/06/01 02:07:43;;;;;;;7.37;2.30;;;17.80;99.90;;;;;;5034582;28;20613;-69
2021/06/01 02:10:12;;;;;;;4.23;1.90;;;17.80;99.90;;;;;;5035051;28;20177;-68
2021/06/01 02:12:39;;;;;;;5.90;2.07;;;17.90;99.90;;;;;;5034470;28;20196;-70
2021/06/01 02:15:09;;;;;;;7.60;1.70;;;18.00;99.90;;;;;;5034983;28;20177;-68
2021/06/01 02:17:38;;;;;;;7.03;1.70;;;18.00;99.90;;;;;;5034536;28;20283;-69
2021/06/01 02:20:06;;;;;;;10.80;2.30;;;18.00;99.90;;;;;;5034652;28;20175;-71
2021/06/01 02:25:42;;;;;;;6.80;1.90;;;18.10;99.90;;;;;;5034749;28;20173;-70
2021/06/01 02:28:23;;;;;;;5.60;1.53;;;18.20;99.90;;;;;;5034529;28;20168;-72
2021/06/01 02:31:03;;;;;;;3.70;1.50;;;18.60;99.90;;;;;;5034793;28;20168;-71
2021/06/01 02:33:32;;;;;;;4.70;2.00;;;18.90;99.60;;;;;;5034138;28;20223;-68
2021/06/01 02:36:01;;;;;;;4.90;1.57;;;18.60;99.90;;;;;;5034691;28;20184;-71
2021/06/01 02:38:32;;;;;;;3.67;1.47;;;18.40;99.90;;;;;;5034135;28;20224;-73
2021/06/01 02:41:03;;;;;;;5.50;1.60;;;18.20;99.90;;;;;;5034485;28;20658;-69
2021/06/01 02:43:32;;;;;;;8.43;1.80;;;18.10;99.90;;;;;;5034098;28;20259;-69
2021/06/01 02:46:00;;;;;;;3.50;1.53;;;18.10;99.90;;;;;;5048885;28;20184;-71
2021/06/01 02:48:29;;;;;;;7.03;1.97;;;18.30;99.90;;;;;;5032593;28;20214;-70
2021/06/01 02:50:58;;;;;;;4.10;1.70;;;18.60;99.70;;;;;;5033666;28;20169;-70
2021/06/01 02:53:26;;;;;;;2.97;1.40;;;19.30;98.80;;;;;;5033855;28;20221;-68
2021/06/01 02:55:54;;;;;;;4.60;1.40;;;19.60;98.00;;;;;;5033775;28;20520;-71
2021/06/01 02:58:22;;;;;;;4.53;1.43;;;19.50;97.50;;;;;;5033717;28;20188;-70
2021/06/01 03:00:49;;;;;;;5.07;1.73;;;19.50;97.70;;;;;;5034001;28;20177;-69
2021/06/01 03:03:16;;;;;;;3.20;1.33;;;19.50;97.60;;;;;;5033470;28;20211;-71
2021/06/01 03:05:44;;;;;;;3.40;1.43;;;19.60;97.20;;;;;;5033654;28;20226;-70
2021/06/01 03:08:29;;;;;;;4.70;1.50;;;19.80;96.60;;;;;;5033462;28;20667;-72
2021/06/01 03:10:58;;;;;;;7.83;1.87;;;19.90;97.00;;;;;;5033768;28;20169;-72
2021/06/01 03:13:26;;;;;;;4.53;1.60;;;19.90;96.30;;;;;;5033585;28;20205;-74
2021/06/01 03:15:54;;;;;;;7.00;1.50;;;20.20;95.70;;;;;;5033856;28;20176;-72
2021/06/01 03:18:22;;;;;;;4.50;1.60;;;20.40;94.60;;;;;;5033040;28;20172;-70
2021/06/01 03:20:50;;;;;;;7.37;1.57;;;20.70;94.20;;;;;;5033552;28;20231;-70
2021/06/01 03:23:19;;;;;;;3.17;1.30;;;20.70;94.30;;;;;;5033244;28;20181;-69
2021/06/01 03:25:47;;;;;;;1.83;1.20;;;20.70;94.40;;;;;;5033221;28;20168;-75
2021/06/01 03:28:15;;;;;;;3.00;1.40;;;20.80;94.40;;;;;;5033541;28;20180;-76
2021/06/01 03:30:42;;;;;;;5.77;1.50;;;20.20;93.70;;;;;;5048352;28;20260;-74
2021/06/01 03:33:09;;;;;;;10.70;1.93;;;20.00;94.20;;;;;;5032931;28;20204;-68
2021/06/01 03:35:37;;;;;;;3.90;1.43;;;20.00;94.40;;;;;;5033439;28;20168;-68
2021/06/01 03:38:04;;;;;;;4.97;1.30;;;19.60;94.10;;;;;;5032871;28;20290;-70
2021/06/01 03:40:32;;;;;;;3.00;1.23;;;19.40;93.40;;;;;;5032836;28;20177;-69
2021/06/01 03:43:02;;;;;;;4.47;1.43;;;19.70;93.10;;;;;;5029606;28;20223;-70
2021/06/01 03:45:29;;;;;;;2.43;1.40;;;20.30;92.30;;;;;;5031890;28;20263;-74
2021/06/01 03:47:56;;;;;;;4.87;1.33;;;21.00;90.90;;;;;;5031767;28;20250;-68
2021/06/01 03:50:26;;;;;;;2.40;1.40;;;21.40;86.40;;;;;;5032059;28;20204;-68
2021/06/01 03:52:53;;;;;;;7.03;5.00;;;21.50;84.00;;;;;;5032972;28;20204;-69
2021/06/01 03:55:21;;;;;;;4.07;1.40;;;21.40;85.40;;;;;;5032584;28;20180;-69
2021/06/01 03:57:50;;;;;;;6.60;1.63;;;20.90;84.60;;;;;;5019904;28;20636;-71
2021/06/01 04:00:23;;;;;;;6.43;1.37;;;20.80;84.30;;;;;;5013110;28;20176;-72
2021/06/01 04:02:51;;;;;;;2.33;1.20;;;21.10;84.90;;;;;;5024163;28;20185;-70
2021/06/01 04:05:18;;;;;;;3.80;1.37;;;21.70;83.00;;;;;;5032412;28;20188;-73
2021/06/01 04:07:47;;;;;;;4.03;1.30;;;21.80;81.90;;;;;;5031543;28;20184;-70
2021/06/01 04:10:16;;;;;;;5.30;1.53;;;22.50;79.80;;;;;;5032758;28;20177;-69
2021/06/01 04:12:45;;;;;;;4.93;1.50;;;22.30;80.40;;;;;;5032765;28;20742;-71
2021/06/01 04:15:13;;;;;;;2.83;1.57;;;22.90;79.10;;;;;;5032351;28;20266;-70
2021/06/01 04:17:40;;;;;;;10.07;2.00;;;23.00;78.30;;;;;;5032254;28;20286;-71
2021/06/01 04:20:09;;;;;;;6.63;1.73;;;23.10;78.30;;;;;;5032537;28;20180;-70
2021/06/01 04:22:36;;;;;;;5.83;1.67;;;23.00;77.60;;;;;;5032335;28;20679;-69
2021/06/01 04:25:06;;;;;;;2.97;1.57;;;23.20;76.00;;;;;;5032618;28;20176;-75
2021/06/01 04:27:34;;;;;;;5.27;1.50;;;22.90;75.90;;;;;;5032621;28;20287;-69
2021/06/01 04:30:01;;;;;;;3.40;1.50;;;22.80;76.80;;;;;;5032506;28;20199;-69
2021/06/01 04:32:28;;;;;;;10.70;2.00;;;22.50;75.10;;;;;;5031970;28;20221;-69
2021/06/01 04:34:56;;;;;;;5.63;1.93;;;22.20;76.50;;;;;;5032345;28;20189;-69
2021/06/01 04:37:23;;;;;;;5.33;2.17;;;21.80;77.30;;;;;;5032052;28;20165;-69
2021/06/01 04:39:51;;;;;;;16.47;2.40;;;21.80;76.90;;;;;;5032306;28;20199;-69
2021/06/01 04:42:18;;;;;;;4.57;1.50;;;21.50;76.60;;;;;;5031821;28;20561;-69
2021/06/01 04:44:45;;;;;;;6.40;1.77;;;21.40;77.60;;;;;;5031580;28;20184;-69
2021/06/01 04:47:13;;;;;;;4.10;1.77;;;21.40;77.90;;;;;;5030669;28;20176;-70
2021/06/01 04:49:40;;;;;;;4.97;1.70;;;21.20;78.00;;;;;;5031650;28;20275;-69
2021/06/01 04:52:09;;;;;;;6.20;2.10;;;21.30;79.00;;;;;;5031838;28;20196;-69
2021/06/01 04:54:36;;;;;;;6.00;2.10;;;21.30;78.20;;;;;;5031924;28;20260;-69
2021/06/01 04:57:07;;;;;;;4.50;2.00;;;21.30;79.00;;;;;;5031207;28;20177;-71
2021/06/01 04:59:37;;;;;;;7.10;2.10;;;21.50;79.10;;;;;;5031142;28;20519;-70
2021/06/01 05:02:06;;;;;;;6.23;2.13;;;22.10;78.20;;;;;;5031079;28;20193;-73
2021/06/01 05:04:33;;;;;;;8.03;2.00;;;21.90;76.30;;;;;;5030746;28;20204;-73
2021/06/01 05:07:01;;;;;;;10.37;2.30;;;21.80;76.70;;;;;;5031239;28;20177;-75
2021/06/01 05:09:31;;;;;;;5.90;1.90;;;21.60;77.50;;;;;;5031163;28;20216;-73
2021/06/01 05:11:58;;;;;;;7.77;2.00;;;21.00;78.50;;;;;;5030146;28;20216;-68
2021/06/01 05:14:26;;;;;;;3.40;1.80;;;20.40;79.80;;;;;;5030324;28;20184;-69
2021/06/01 05:16:53;;;;;;;8.30;2.00;;;20.00;81.70;;;;;;5030195;28;20184;-70
2021/06/01 05:19:21;;;;;;;5.10;1.80;;;19.50;83.60;;;;;;5029933;28;20193;-71
2021/06/01 05:21:49;;;;;;;6.43;1.90;;;19.30;83.70;;;;;;5033704;28;20258;-70
2021/06/01 05:24:16;;;;;;;5.53;2.10;;;19.10;84.50;;;;;;5034274;28;20192;-69
2021/06/01 05:26:44;;;;;;;2.87;1.87;;;19.00;85.20;;;;;;5034860;28;20251;-68
2021/06/01 05:29:11;;;;;;;6.60;2.20;;;19.00;85.60;;;;;;5035526;28;20172;-72
2021/06/01 05:34:13;;;;;;;8.30;2.10;;;18.90;86.90;;;;;;5034653;28;20188;-69
2021/06/01 05:36:41;;;;;;;4.83;1.70;;;18.80;87.00;;;;;;5035047;28;20273;-69
2021/06/01 05:39:13;;;;;;;3.93;1.97;;;18.70;87.40;;;;;;5034248;28;20220;-69
2021/06/01 05:41:40;;;;;;;10.43;2.60;;;18.80;89.30;;;;;;5033435;28;20238;-70
2021/06/01 05:44:08;;;;;;;9.87;3.30;;;18.70;89.30;;;;;;5035134;28;20250;-69
2021/06/01 05:46:35;;;;;;;6.87;2.23;;;18.80;90.00;;;;;;5034896;28;20176;-69
2021/06/01 05:49:04;;;;;;;5.77;2.00;;;18.70;90.40;;;;;;5034857;28;20179;-69
2021/06/01 05:51:40;;;;;;;3.87;2.23;;;18.80;90.70;;;;;;5050435;28;20188;-71
2021/06/01 05:54:09;;;;;;;5.47;4.07;;;18.80;90.40;;;;;;5035111;28;20208;-71
2021/06/01 05:56:37;;;;;;;9.57;3.67;;;18.80;90.80;;;;;;5035064;28;20291;-68
2021/06/01 05:59:05;;;;;;;10.93;2.67;;;18.70;91.10;;;;;;5032641;28;20180;-68
2021/06/01 06:01:35;;;;;;;8.90;2.63;;;18.80;91.10;;;;;;5029921;28;20181;-69
2021/06/01 06:04:02;;;;;;;9.37;2.40;;;18.80;91.20;;;;;;5035203;28;20212;-70
2021/06/01 06:06:31;;;;;;;12.67;2.10;;;18.70;91.60;;;;;;5035719;28;20181;-70
2021/06/01 06:08:58;;;;;;;8.13;2.40;;;18.70;91.60;;;;;;5035511;28;20173;-68
2021/06/01 06:11:25;;;;;;;7.67;2.30;;;18.60;91.90;;;;;;5033841;28;20187;-73
2021/06/01 06:13:53;;;;;;;11.20;2.60;;;18.40;91.50;;;;;;5034311;28;20239;-75
2021/06/01 06:16:20;;;;;;;15.13;2.67;;;18.50;92.00;;;;;;5034411;28;20181;-72
2021/06/01 06:18:58;;;;;;;10.40;3.40;;;18.40;92.20;;;;;;5033893;28;20207;-71
2021/06/01 06:21:26;;;;;;;10.63;2.33;;;18.40;92.60;;;;;;5025725;28;20540;-71
2021/06/01 06:23:54;;;;;;;7.27;2.40;;;18.30;92.70;;;;;;5034044;28;20601;-69
2021/06/01 06:26:21;;;;;;;10.13;2.27;;;18.10;92.20;;;;;;5033599;28;20234;-69
2021/06/01 06:28:48;;;;;;;8.93;2.30;;;18.00;92.20;;;;;;5034458;28;20187;-71
2021/06/01 06:31:16;;;;;;;8.30;2.83;;;17.90;92.10;;;;;;5033964;28;20181;-70
2021/06/01 06:33:43;;;;;;;8.33;2.60;;;17.80;93.20;;;;;;5033705;28;20629;-69
2021/06/01 06:36:11;;;;;;;7.20;2.43;;;17.80;92.80;;;;;;5033557;28;20746;-69
2021/06/01 06:38:38;;;;;;;5.57;2.27;;;17.70;94.20;;;;;;5032766;28;20230;-68
2021/06/01 06:41:12;;;;;;;7.30;2.40;;;17.60;94.50;;;;;;5034028;28;20173;-69
2021/06/01 06:43:47;;;;;;;9.20;2.63;;;17.50;94.90;;;;;;5030234;28;20255;-72
2021/06/01 06:46:17;;;;;;;15.57;3.70;;;17.40;95.00;;;;;;5031700;28;20189;-70
2021/06/01 06:48:46;;;;;;;7.43;3.33;;;17.30;95.40;;;;;;5030479;28;20646;-71
2021/06/01 06:51:14;;;;;;;12.53;3.37;;;17.10;95.30;;;;;;5033948;28;20536;-69
2021/06/01 06:54:07;;;;;;;6.77;2.90;;;17.00;96.00;;;;;;5033723;28;20205;-69
2021/06/01 06:56:33;;;;;;;7.73;3.10;;;16.90;96.20;;;;;;5033507;28;20188;-68
2021/06/01 06:59:01;;;;;;;10.97;3.40;;;16.80;96.00;;;;;;5033001;28;20674;-71
2021/06/01 07:01:29;;;;;;;12.00;3.17;;;16.70;96.30;;;;;;5031185;28;20198;-69
2021/06/01 07:03:57;;;;;;;14.13;4.50;;;16.60;97.10;;;;;;5028669;28;20192;-70
2021/06/01 07:06:24;;;;;;;11.03;3.43;;;16.50;97.50;;;;;;5021674;28;20696;-69
2021/06/01 07:08:52;;;;;;;11.60;3.20;;;16.40;98.10;;;;;;5032842;28;20169;-69
2021/06/01 07:11:19;;;;;;;11.50;3.20;;;16.30;99.10;;;;;;5033475;28;20211;-72
2021/06/01 07:13:56;;;;;;;10.23;3.13;;;16.20;99.90;;;;;;5033783;28;20222;-75
2021/06/01 07:16:23;;;;;;;11.03;2.77;;;16.20;99.90;;;;;;5027873;28;20176;-67
2021/06/01 07:18:50;;;;;;;11.20;3.20;;;16.10;99.90;;;;;;5030394;28;20254;-69
2021/06/01 07:21:18;;;;;;;7.10;3.37;;;16.10;99.90;;;;;;5029809;28;20185;-71
2021/06/01 07:23:45;;;;;;;10.23;3.30;;;16.10;99.90;;;;;;5032830;28;20664;-69
2021/06/01 07:26:13;;;;;;;9.77;3.80;;;16.10;99.90;;;;;;5033299;28;20215;-70
2021/06/01 07:28:40;;;;;;;13.93;4.27;;;16.00;99.90;;;;;;5031713;28;20191;-69
2021/06/01 07:31:16;;;;;;;18.53;6.47;;;16.00;99.90;;;;;;5031698;28;20211;-69
2021/06/01 07:33:45;;;;;;;13.20;5.93;;;16.00;99.90;;;;;;5033271;28;20216;-68
2021/06/01 07:36:13;;;;;;;14.50;5.17;;;16.00;99.90;;;;;;5033270;28;20179;-69
2021/06/01 07:38:40;;;;;;;15.10;7.90;;;15.90;99.90;;;;;;5032865;28;20220;-69
2021/06/01 07:41:09;;;;;;;19.43;9.23;;;16.00;99.90;;;;;;5026175;28;20187;-70
2021/06/01 07:43:36;;;;;;;21.00;6.17;;;15.90;99.90;;;;;;5032142;28;20235;-70
2021/06/01 07:46:05;;;;;;;21.87;5.80;;;15.90;99.90;;;;;;5031323;28;20674;-69
2021/06/01 07:48:36;;;;;;;15.73;5.77;;;15.90;99.90;;;;;;5024846;28;20235;-72
2021/06/01 07:51:10;;;;;;;18.03;5.60;;;15.90;99.90;;;;;;5037042;28;20180;-73
2021/06/01 07:53:39;;;;;;;12.77;5.30;;;15.80;99.90;;;;;;5028368;28;20203;-74
2021/06/01 07:56:09;;;;;;;16.17;5.57;;;15.80;99.90;;;;;;5031316;28;20173;-69
2021/06/01 07:58:36;;;;;;;19.90;4.67;;;15.70;99.90;;;;;;5032287;28;20188;-69
2021/06/01 08:01:04;;;;;;;19.77;5.63;;;15.60;99.90;;;;;;5030178;28;20175;-69
2021/06/01 08:03:32;;;;;;;15.30;5.27;;;15.60;99.90;;;;;;5029674;28;20654;-71
2021/06/01 08:05:59;;;;;;;12.60;5.27;;;15.60;99.90;;;;;;5031947;28;20181;-69
2021/06/01 08:08:26;;;;;;;16.80;6.23;;;15.60;99.90;;;;;;5027020;28;20183;-72
2021/06/01 08:10:54;;;;;;;15.13;5.50;;;15.50;99.90;;;;;;5031862;28;20533;-69
2021/06/01 08:13:21;;;;;;;17.53;6.00;;;15.40;99.90;;;;;;5035476;28;20303;-70
2021/06/01 08:15:51;;;;;;;12.30;5.23;;;15.40;99.90;;;;;;5031038;28;20184;-69
2021/06/01 08:18:20;;;;;;;10.77;3.80;;;15.40;99.90;;;;;;5030048;28;20196;-69
2021/06/01 08:23:30;;;;;;;11.97;4.03;;;15.30;99.90;;;;;;5052274;28;20201;-69
2021/06/01 08:25:58;;;;;;;18.70;4.30;;;15.30;99.90;;;;;;5032178;28;20183;-73
2021/06/01 08:28:25;;;;;;;11.37;4.10;;;15.30;99.90;;;;;;5031479;28;20519;-68
2021/06/01 08:30:53;;;;;;;12.77;4.73;;;15.30;99.90;;;;;;5030132;28;20181;-70
2021/06/01 08:33:21;;;;;;;13.57;4.40;;;15.30;99.90;;;;;;5032119;28;20221;-70
2021/06/01 08:35:49;;;;;;;13.97;5.00;;;15.20;99.90;;;;;;5031709;28;20186;-70
2021/06/01 08:38:18;;;;;;;12.70;5.53;;;15.20;99.90;;;;;;5030837;28;20231;-69
2021/06/01 08:40:50;;;;;;;21.43;6.03;;;15.20;99.90;;;;;;5032203;28;20199;-69
2021/06/01 08:43:19;;;;;;;21.97;5.57;;;15.10;99.90;;;;;;5032432;28;20232;-69
2021/06/01 08:45:52;;;;;;;14.63;5.47;;;15.00;99.90;;;;;;5031976;28;20541;-71
2021/06/01 08:48:20;;;;;;;18.53;6.60;;;15.00;99.90;;;;;;5031219;28;20172;-70
2021/06/01 08:50:51;;;;;;;18.87;7.30;;;15.00;99.90;;;;;;5031344;28;20674;-72
2021/06/01 08:53:19;;;;;;;17.70;7.13;;;15.00;99.90;;;;;;5030408;28;20228;-69
2021/06/01 08:55:48;;;;;;;12.87;6.93;;;14.90;99.90;;;;;;5034426;28;20181;-72
2021/06/01 08:58:18;;;;;;;16.43;6.67;;;14.90;99.90;;;;;;5036019;28;20181;-73
2021/06/01 09:00:46;;;;;;;24.13;6.10;;;14.90;99.90;;;;;;5035290;28;20664;-70
2021/06/01 09:03:18;;;;;;;14.20;5.90;;;14.90;99.90;;;;;;5035932;28;20268;-72
2021/06/01 09:09:17;;;;;;;17.47;6.40;;;15.00;99.90;;;;;;5031423;28;20651;-75
2021/06/01 09:22:56;;;;;;;12.47;5.40;;;14.80;99.90;;;;;;5030678;28;20730;-69
2021/06/01 09:25:40;;;;;;;12.37;5.70;;;14.70;99.90;;;;;;5030745;28;20543;-69
2021/06/01 09:28:13;;;;;;;9.23;5.23;;;14.60;99.90;;;;;;5034483;28;20230;-68
2021/06/01 09:30:40;;;;;;;18.97;6.47;;;14.60;99.90;;;;;;5034035;28;20184;-69
2021/06/01 09:33:19;;;;;;;14.23;6.13;;;14.50;99.90;;;;;;5034724;28;20728;-70
2021/06/01 09:35:49;;;;;;;14.83;5.93;;;14.50;99.90;;;;;;5035202;28;20182;-69
2021/06/01 09:38:20;;;;;;;17.50;7.67;;;14.40;99.90;;;;;;5033406;28;20220;-69
2021/06/01 09:40:49;;;;;;;14.57;7.83;;;14.40;99.90;;;;;;5033641;28;20197;-69
2021/06/01 09:43:17;;;;;;;14.27;6.93;;;14.30;99.90;;;;;;5034846;28;20547;-69
2021/06/01 09:45:45;;;;;;;11.87;5.60;;;14.30;99.90;;;;;;5035129;28;20684;-70
2021/06/01 09:48:13;;;;;;;13.00;5.63;;;14.20;99.90;;;;;;5034663;28;20190;-70
2021/06/01 09:50:49;;;;;;;15.97;5.77;;;14.10;99.90;;;;;;5034661;28;20223;-69
2021/06/01 09:53:26;;;;;;;15.73;5.80;;;14.10;99.90;;;;;;5033360;28;20216;-69
2021/06/01 09:55:55;;;;;;;21.63;6.33;;;14.10;99.90;;;;;;5034743;28;20583;-71
2021/06/01 09:58:36;;;;;;;10.90;6.00;;;14.10;99.90;;;;;;5034621;28;20184;-70
2021/06/01 10:01:06;;;;;;;11.83;7.53;;;14.10;99.90;;;;;;5035284;28;20212;-71
2021/06/01 10:03:47;;;;;;;15.83;7.40;;;14.00;99.90;;;;;;5031960;28;20180;-70
2021/06/01 10:06:15;;;;;;;15.57;8.10;;;14.00;99.90;;;;;;5033771;28;20172;-70
2021/06/01 10:08:52;;;;;;;12.63;7.30;;;13.90;99.90;;;;;;5034393;28;20187;-68
2021/06/01 10:11:20;;;;;;;16.60;7.40;;;13.90;99.90;;;;;;5033310;28;20176;-69
2021/06/01 10:13:47;;;;;;;15.93;7.37;;;13.80;99.90;;;;;;5033880;28;20251;-69
2021/06/01 10:16:17;;;;;;;13.53;7.07;;;13.90;99.90;;;;;;5042751;28;20165;-70
2021/06/01 10:18:45;;;;;;;18.13;8.27;;;13.80;99.90;;;;;;5033084;28;20195;-70
2021/06/01 10:21:19;;;;;;;19.07;8.00;;;13.80;99.90;;;;;;5034517;28;20524;-72
2021/06/01 10:23:53;;;;;;;25.43;8.60;;;13.80;99.90;;;;;;5033790;28;20529;-70
2021/06/01 10:26:24;;;;;;;16.97;7.97;;;13.70;99.90;;;;;;5034125;28;20195;-68
2021/06/01 10:28:51;;;;;;;15.70;7.83;;;13.70;99.90;;;;;;5034653;28;20180;-69
2021/06/01 10:31:19;;;;;;;16.50;7.37;;;13.70;99.90;;;;;;5034067;28;20642;-69
2021/06/01 10:33:51;;;;;;;24.30;9.00;;;13.70;99.90;;;;;;5034422;28;20216;-68
2021/06/01 10:44:55;;;;;;;22.10;9.83;;;13.50;99.90;;;;;;5022667;28;20202;-69
2021/06/01 10:50:23;;;;;;;19.40;9.87;;;13.40;99.90;;;;;;5034415;28;20206;-68
2021/06/01 10:53:21;;;;;;;20.53;9.93;;;13.30;99.90;;;;;;5033649;28;20312;-68
2021/06/01 10:55:51;;;;;;;15.43;9.40;;;13.30;99.90;;;;;;5033783;28;20264;-68
2021/06/01 10:58:31;;;;;;;22.13;8.83;;;13.30;99.90;;;;;;5033580;28;20618;-69
2021/06/01 11:04:25;;;;;;;17.07;9.50;;;13.30;99.90;;;;;;5033774;28;20217;-70
2021/06/01 11:09:38;;;;;;;16.90;7.93;;;13.10;99.90;;;;;;5033047;28;20188;-70
2021/06/01 11:12:16;;;;;;;25.33;9.17;;;13.10;99.90;;;;;;5033582;28;20199;-69
2021/06/01 11:14:43;;;;;;;20.10;8.80;;;13.10;99.90;;;;;;5033337;28;20197;-68
2021/06/01 11:17:11;;;;;;;19.00;9.23;;;13.10;99.90;;;;;;5031142;28;20181;-68
2021/06/01 11:20:06;;;;;;;18.23;8.67;;;13.10;99.90;;;;;;5032306;28;20205;-70
2021/06/01 11:22:45;;;;;;;16.50;8.00;;;13.10;99.90;;;;;;5029716;28;20322;-70
2021/06/01 11:33:26;;;;;;;21.20;8.90;;;12.90;99.90;;;;;;5030367;28;20728;-69
2021/06/01 11:35:58;;;;;;;18.53;8.70;;;12.90;99.90;;;;;;5031325;28;20189;-69
2021/06/01 11:38:46;;;;;;;25.37;9.50;;;12.80;99.90;;;;;;5038282;28;20307;-67
2021/06/01 11:43:48;;;;;;;21.57;8.27;;;12.90;99.90;;;;;;5033027;28;20208;-69
2021/06/01 11:51:27;;;;;;;19.00;8.30;;;13.00;99.90;;;;;;5033155;28;20181;-71
2021/06/01 11:53:55;;;;;;;21.77;8.33;;;13.00;99.90;;;;;;5026795;28;20307;-70
2021/06/01 11:56:51;;;;;;;24.20;8.43;;;13.00;99.90;;;;;;5032691;28;20180;-70
2021/06/01 12:05:13;;;;;;;21.37;7.70;;;12.90;99.90;;;;;;5033573;28;20188;-69
2021/06/01 12:18:54;;;;;;;22.50;8.60;;;12.80;99.90;;;;;;5029992;28;20592;-68
2021/06/01 12:21:27;;;;;;;21.60;9.03;;;12.80;99.90;;;;;;5032186;28;20177;-70
2021/06/01 12:24:05;;;;;;;19.17;8.07;;;12.80;99.90;;;;;;5032027;28;20606;-70
2021/06/01 12:32:12;;;;;;;15.30;7.97;;;12.70;99.90;;;;;;5030838;28;20553;-70
2021/06/01 12:46:02;;;;;;;18.13;9.10;;;12.50;99.90;;;;;;5031865;28;20207;-68
2021/06/01 13:20:46;;;;;;;24.13;9.17;;;12.50;99.90;;;;;;5031072;28;20184;-68
2021/06/01 13:46:09;;;;;;;24.53;9.20;;;12.60;99.90;;;;;;5035795;28;20666;-69
2021/06/01 13:56:13;;;;;;;22.03;9.00;;;12.60;99.90;;;;;;5034655;28;20662;-69
2021/06/01 14:19:20;;;;;;;23.20;9.27;;;12.30;99.90;;;;;;5024282;28;20232;-69
2021/06/01 14:38:15;;;;;;;23.27;11.73;;;12.10;99.90;;;;;;5020375;28;20207;-69
2021/06/01 14:55:24;;;;;;;29.17;13.17;;;12.10;99.90;;;;;;5032153;28;20219;-70
2021/06/01 15:49:48;;;;;;;23.93;11.03;;;12.00;99.90;;;;;;5029720;28;20564;-69
2021/06/01 16:15:13;;;;;;;20.00;11.70;;;11.40;99.90;;;;;;4988169;28;20680;-67
2021/06/01 16:23:25;;;;;;;36.90;12.10;;;11.30;99.90;;;;;;5032685;28;20188;-69
2021/06/01 16:31:50;;;;;;;18.83;10.77;;;11.30;99.90;;;;;;5029978;28;20248;-69
2021/06/01 17:05:17;;;;;;;18.10;10.27;;;11.20;99.90;;;;;;5032567;28;20310;-69
2021/06/01 17:13:16;;;;;;;32.37;13.50;;;11.20;99.90;;;;;;5032545;28;20203;-69
2021/06/01 17:15:45;;;;;;;19.57;13.40;;;11.20;99.90;;;;;;5034854;28;20183;-70
2021/06/01 17:18:32;;;;;;;32.77;10.30;;;11.20;99.90;;;;;;5036009;28;20168;-69
2021/06/01 17:34:54;;;;;;;18.00;9.10;;;11.30;99.90;;;;;;5035732;28;20195;-68
2021/06/01 17:37:22;;;;;;;14.83;9.20;;;11.30;99.90;;;;;;5035762;28;20167;-69
2021/06/01 17:39:50;;;;;;;14.57;9.43;;;11.30;99.90;;;;;;5035567;28;20229;-69
2021/06/01 17:42:20;;;;;;;18.57;9.83;;;11.30;99.90;;;;;;5035455;28;20568;-70
2021/06/01 17:44:52;;;;;;;19.70;10.27;;;11.30;99.90;;;;;;5016066;28;20189;-69
2021/06/01 17:47:24;;;;;;;18.27;10.10;;;11.20;99.90;;;;;;5017749;28;20203;-68
2021/06/01 17:49:53;;;;;;;17.27;9.80;;;11.20;99.90;;;;;;5035446;28;20192;-68
2021/06/01 17:52:33;;;;;;;21.70;11.20;;;11.20;99.90;;;;;;5035269;28;20230;-68
2021/06/01 17:55:01;;;;;;;18.63;9.57;;;11.10;99.90;;;;;;5035645;28;20194;-68
2021/06/01 17:57:29;;;;;;;19.90;9.73;;;11.10;99.90;;;;;;5035255;28;20235;-68
2021/06/01 17:59:56;;;;;;;20.90;10.23;;;11.00;99.90;;;;;;5035228;28;20188;-69
2021/06/01 18:02:24;;;;;;;16.13;9.53;;;11.00;99.90;;;;;;5035229;28;20537;-67
2021/06/01 18:04:54;;;;;;;23.67;10.53;;;11.00;99.90;;;;;;5034129;28;20183;-69
2021/06/01 18:07:39;;;;;;;19.07;9.73;;;11.00;99.90;;;;;;5035506;28;20187;-68
2021/06/01 18:10:57;;;;;;;22.60;10.40;;;11.00;99.90;;;;;;5035201;28;20267;-68
2021/06/01 18:13:57;;;;;;;21.57;9.83;;;10.90;99.90;;;;;;5035049;28;20635;-69
2021/06/01 18:29:30;;;;;;;15.70;10.17;;;10.90;99.90;;;;;;5020251;28;20188;-68
2021/06/01 18:52:59;;;;;;;18.67;11.53;;;10.40;99.90;;;;;;5034584;28;20180;-69
2021/06/01 19:00:01;;;;;;;23.73;11.80;;;10.40;99.90;;;;;;5034331;28;20260;-70
2021/06/01 19:06:43;;;;;;;19.13;10.47;;;10.30;99.90;;;;;;5034409;28;20238;-70
2021/06/01 19:50:21;;;;;;;15.37;7.77;;;10.10;99.90;;;;;;5034362;28;20194;-67
2021/06/01 19:52:56;;;;;;;19.03;7.67;;;10.20;99.90;;;;;;5033154;28;20199;-68
2021/06/01 19:55:27;;;;;;;14.97;8.23;;;10.20;99.90;;;;;;5033022;28;20193;-69
2021/06/01 19:57:55;;;;;;;18.80;7.80;;;10.20;99.90;;;;;;5033743;28;20199;-68
2021/06/01 20:00:26;;;;;;;16.33;7.93;;;10.20;99.90;;;;;;5033468;28;20166;-68
2021/06/01 20:02:54;;;;;;;14.63;6.77;;;10.20;99.90;;;;;;5033688;28;20237;-68
2021/06/01 20:05:21;;;;;;;22.53;8.47;;;10.20;99.90;;;;;;5032979;28;20179;-67